sensor_id;sensor_type;location;lat;lon;timestamp;P1;durP1;ratioP1;P2;durP2;ratioP2
51298;SDS011;37382;45.192;9.790;2023-09-30T00:00:16;43.95;;;31.65;;
51298;SDS011;37382;45.192;9.790;2023-09-30T00:02:44;53.70;;;33.10;;
51298;SDS011;37382;45.192;9.790;2023-09-30T00:05:11;42.85;;;31.30;;
51298;SDS011;37382;45.192;9.790;2023-09-30T00:07:39;48.03;;;32.83;;
51298;SDS011;37382;45.192;9.790;2023-09-30T00:10:07;59.38;;;34.60;;
51298;SDS011;37382;45.192;9.790;2023-09-30T00:12:35;52.72;;;33.05;;
51298;SDS011;37382;45.192;9.790;2023-09-30T00:15:03;42.17;;;31.83;;
51298;SDS011;37382;45.192;9.790;2023-09-30T00:17:31;50.40;;;34.55;;
51298;SDS011;37382;45.192;9.790;2023-09-30T00:19:58;52.92;;;31.73;;
51298;SDS011;37382;45.192;9.790;2023-09-30T00:22:26;41.95;;;30.55;;
51298;SDS011;37382;45.192;9.790;2023-09-30T00:24:53;39.03;;;29.45;;
51298;SDS011;37382;45.192;9.790;2023-09-30T00:27:21;47.05;;;30.60;;
51298;SDS011;37382;45.192;9.790;2023-09-30T00:29:49;44.15;;;31.48;;
51298;SDS011;37382;45.192;9.790;2023-09-30T00:32:16;42.92;;;30.73;;
51298;SDS011;37382;45.192;9.790;2023-09-30T00:34:44;42.50;;;29.35;;
51298;SDS011;37382;45.192;9.790;2023-09-30T00:37:11;43.28;;;29.80;;
51298;SDS011;37382;45.192;9.790;2023-09-30T00:39:39;45.00;;;32.00;;
51298;SDS011;37382;45.192;9.790;2023-09-30T00:42:07;45.75;;;32.55;;
51298;SDS011;37382;45.192;9.790;2023-09-30T00:44:34;37.53;;;32.70;;
51298;SDS011;37382;45.192;9.790;2023-09-30T00:47:02;41.10;;;32.47;;
51298;SDS011;37382;45.192;9.790;2023-09-30T00:49:29;49.28;;;34.45;;
51298;SDS011;37382;45.192;9.790;2023-09-30T00:51:58;51.30;;;32.60;;
51298;SDS011;37382;45.192;9.790;2023-09-30T00:54:26;43.15;;;33.17;;
51298;SDS011;37382;45.192;9.790;2023-09-30T00:56:54;45.13;;;32.22;;
51298;SDS011;37382;45.192;9.790;2023-09-30T00:59:27;50.38;;;32.72;;
51298;SDS011;37382;45.192;9.790;2023-09-30T01:01:58;54.20;;;37.55;;
51298;SDS011;37382;45.192;9.790;2023-09-30T01:04:27;55.50;;;36.20;;
51298;SDS011;37382;45.192;9.790;2023-09-30T01:06:55;49.40;;;34.45;;
51298;SDS011;37382;45.192;9.790;2023-09-30T01:09:26;50.28;;;35.03;;
51298;SDS011;37382;45.192;9.790;2023-09-30T01:11:55;49.13;;;37.17;;
51298;SDS011;37382;45.192;9.790;2023-09-30T01:14:29;53.03;;;39.63;;
51298;SDS011;37382;45.192;9.790;2023-09-30T01:16:59;66.63;;;38.88;;
51298;SDS011;37382;45.192;9.790;2023-09-30T01:19:26;54.75;;;39.83;;
51298;SDS011;37382;45.192;9.790;2023-09-30T01:21:55;48.25;;;36.30;;
51298;SDS011;37382;45.192;9.790;2023-09-30T01:24:27;50.30;;;37.22;;
51298;SDS011;37382;45.192;9.790;2023-09-30T01:26:58;54.70;;;38.67;;
51298;SDS011;37382;45.192;9.790;2023-09-30T01:29:25;53.38;;;38.83;;
51298;SDS011;37382;45.192;9.790;2023-09-30T01:31:54;59.10;;;40.55;;
51298;SDS011;37382;45.192;9.790;2023-09-30T01:34:23;60.13;;;39.78;;
51298;SDS011;37382;45.192;9.790;2023-09-30T01:36:50;53.85;;;40.97;;
51298;SDS011;37382;45.192;9.790;2023-09-30T01:39:18;63.42;;;41.92;;
51298;SDS011;37382;45.192;9.790;2023-09-30T01:41:45;56.03;;;39.65;;
51298;SDS011;37382;45.192;9.790;2023-09-30T01:44:13;53.10;;;39.28;;
51298;SDS011;37382;45.192;9.790;2023-09-30T01:46:40;56.45;;;39.30;;
51298;SDS011;37382;45.192;9.790;2023-09-30T01:49:08;56.95;;;39.85;;
51298;SDS011;37382;45.192;9.790;2023-09-30T01:51:35;66.05;;;41.78;;
51298;SDS011;37382;45.192;9.790;2023-09-30T01:54:03;61.03;;;41.78;;
51298;SDS011;37382;45.192;9.790;2023-09-30T01:56:30;54.13;;;39.33;;
51298;SDS011;37382;45.192;9.790;2023-09-30T01:58:59;55.28;;;39.22;;
51298;SDS011;37382;45.192;9.790;2023-09-30T02:01:27;64.97;;;39.72;;
51298;SDS011;37382;45.192;9.790;2023-09-30T02:03:54;65.75;;;40.00;;
51298;SDS011;37382;45.192;9.790;2023-09-30T02:06:22;61.65;;;38.67;;
51298;SDS011;37382;45.192;9.790;2023-09-30T02:08:49;54.53;;;37.88;;
51298;SDS011;37382;45.192;9.790;2023-09-30T02:11:17;51.42;;;38.42;;
51298;SDS011;37382;45.192;9.790;2023-09-30T02:13:44;52.55;;;38.65;;
51298;SDS011;37382;45.192;9.790;2023-09-30T02:16:12;51.90;;;37.22;;
51298;SDS011;37382;45.192;9.790;2023-09-30T02:18:43;53.40;;;35.47;;
51298;SDS011;37382;45.192;9.790;2023-09-30T02:21:12;49.08;;;36.50;;
51298;SDS011;37382;45.192;9.790;2023-09-30T02:23:40;54.60;;;37.75;;
51298;SDS011;37382;45.192;9.790;2023-09-30T02:26:07;48.70;;;36.83;;
51298;SDS011;37382;45.192;9.790;2023-09-30T02:28:35;60.22;;;38.72;;
51298;SDS011;37382;45.192;9.790;2023-09-30T02:31:03;54.03;;;38.30;;
51298;SDS011;37382;45.192;9.790;2023-09-30T02:33:32;56.83;;;39.75;;
51298;SDS011;37382;45.192;9.790;2023-09-30T02:36:00;51.50;;;39.10;;
51298;SDS011;37382;45.192;9.790;2023-09-30T02:38:27;52.67;;;39.28;;
51298;SDS011;37382;45.192;9.790;2023-09-30T02:40:54;46.08;;;39.25;;
51298;SDS011;37382;45.192;9.790;2023-09-30T02:43:22;51.40;;;40.38;;
51298;SDS011;37382;45.192;9.790;2023-09-30T02:45:49;53.85;;;39.30;;
51298;SDS011;37382;45.192;9.790;2023-09-30T02:48:17;56.95;;;40.72;;
51298;SDS011;37382;45.192;9.790;2023-09-30T02:50:45;60.65;;;42.00;;
51298;SDS011;37382;45.192;9.790;2023-09-30T02:53:13;48.28;;;40.58;;
51298;SDS011;37382;45.192;9.790;2023-09-30T02:55:41;58.03;;;40.33;;
51298;SDS011;37382;45.192;9.790;2023-09-30T02:58:10;63.22;;;41.63;;
51298;SDS011;37382;45.192;9.790;2023-09-30T03:00:38;57.45;;;40.45;;
51298;SDS011;37382;45.192;9.790;2023-09-30T03:03:06;52.58;;;39.72;;
51298;SDS011;37382;45.192;9.790;2023-09-30T03:05:33;59.63;;;41.47;;
51298;SDS011;37382;45.192;9.790;2023-09-30T03:08:01;56.65;;;40.97;;
51298;SDS011;37382;45.192;9.790;2023-09-30T03:10:28;61.08;;;40.95;;
51298;SDS011;37382;45.192;9.790;2023-09-30T03:12:56;52.58;;;41.35;;
51298;SDS011;37382;45.192;9.790;2023-09-30T03:15:29;52.58;;;41.75;;
51298;SDS011;37382;45.192;9.790;2023-09-30T03:18:00;52.85;;;41.92;;
51298;SDS011;37382;45.192;9.790;2023-09-30T03:20:28;55.38;;;38.67;;
51298;SDS011;37382;45.192;9.790;2023-09-30T03:22:56;58.97;;;41.13;;
51298;SDS011;37382;45.192;9.790;2023-09-30T03:25:23;55.85;;;39.10;;
51298;SDS011;37382;45.192;9.790;2023-09-30T03:27:51;55.22;;;39.40;;
51298;SDS011;37382;45.192;9.790;2023-09-30T03:30:18;47.80;;;36.38;;
51298;SDS011;37382;45.192;9.790;2023-09-30T03:32:47;48.55;;;35.25;;
51298;SDS011;37382;45.192;9.790;2023-09-30T03:35:15;53.55;;;36.35;;
51298;SDS011;37382;45.192;9.790;2023-09-30T03:37:46;52.20;;;36.38;;
51298;SDS011;37382;45.192;9.790;2023-09-30T03:40:15;48.78;;;38.67;;
51298;SDS011;37382;45.192;9.790;2023-09-30T03:42:47;51.53;;;38.72;;
51298;SDS011;37382;45.192;9.790;2023-09-30T03:45:18;54.78;;;38.67;;
51298;SDS011;37382;45.192;9.790;2023-09-30T03:47:46;58.67;;;38.10;;
51298;SDS011;37382;45.192;9.790;2023-09-30T03:50:15;60.28;;;40.88;;
51298;SDS011;37382;45.192;9.790;2023-09-30T03:52:43;58.33;;;40.28;;
51298;SDS011;37382;45.192;9.790;2023-09-30T03:55:15;56.97;;;42.83;;
51298;SDS011;37382;45.192;9.790;2023-09-30T03:57:47;52.10;;;38.88;;
51298;SDS011;37382;45.192;9.790;2023-09-30T04:00:16;49.95;;;40.15;;
51298;SDS011;37382;45.192;9.790;2023-09-30T04:02:48;56.95;;;41.00;;
51298;SDS011;37382;45.192;9.790;2023-09-30T04:05:18;56.60;;;35.60;;
51298;SDS011;37382;45.192;9.790;2023-09-30T04:07:46;52.10;;;37.47;;
51298;SDS011;37382;45.192;9.790;2023-09-30T04:10:14;51.28;;;36.83;;
51298;SDS011;37382;45.192;9.790;2023-09-30T04:12:43;47.42;;;35.45;;
51298;SDS011;37382;45.192;9.790;2023-09-30T04:15:11;47.65;;;37.22;;
51298;SDS011;37382;45.192;9.790;2023-09-30T04:17:39;52.88;;;36.90;;
51298;SDS011;37382;45.192;9.790;2023-09-30T04:20:07;52.95;;;38.60;;
51298;SDS011;37382;45.192;9.790;2023-09-30T04:22:45;55.72;;;36.60;;
51298;SDS011;37382;45.192;9.790;2023-09-30T04:25:16;49.38;;;39.30;;
51298;SDS011;37382;45.192;9.790;2023-09-30T04:27:45;50.53;;;40.63;;
51298;SDS011;37382;45.192;9.790;2023-09-30T04:30:19;49.78;;;38.85;;
51298;SDS011;37382;45.192;9.790;2023-09-30T04:32:46;58.30;;;42.50;;
51298;SDS011;37382;45.192;9.790;2023-09-30T04:35:14;57.60;;;40.60;;
51298;SDS011;37382;45.192;9.790;2023-09-30T04:37:42;59.35;;;40.70;;
51298;SDS011;37382;45.192;9.790;2023-09-30T04:40:10;57.60;;;41.53;;
51298;SDS011;37382;45.192;9.790;2023-09-30T04:42:47;53.40;;;40.10;;
51298;SDS011;37382;45.192;9.790;2023-09-30T04:45:16;55.55;;;40.17;;
51298;SDS011;37382;45.192;9.790;2023-09-30T04:47:43;59.85;;;40.22;;
51298;SDS011;37382;45.192;9.790;2023-09-30T04:50:16;50.70;;;39.60;;
51298;SDS011;37382;45.192;9.790;2023-09-30T04:52:44;52.30;;;39.55;;
51298;SDS011;37382;45.192;9.790;2023-09-30T04:55:13;54.40;;;41.17;;
51298;SDS011;37382;45.192;9.790;2023-09-30T04:57:43;55.30;;;39.10;;
51298;SDS011;37382;45.192;9.790;2023-09-30T05:00:16;51.70;;;40.67;;
51298;SDS011;37382;45.192;9.790;2023-09-30T05:02:45;52.28;;;40.25;;
51298;SDS011;37382;45.192;9.790;2023-09-30T05:05:14;49.47;;;39.67;;
51298;SDS011;37382;45.192;9.790;2023-09-30T05:07:42;47.22;;;35.83;;
51298;SDS011;37382;45.192;9.790;2023-09-30T05:10:10;58.30;;;38.80;;
51298;SDS011;37382;45.192;9.790;2023-09-30T05:12:41;50.27;;;39.47;;
51298;SDS011;37382;45.192;9.790;2023-09-30T05:15:15;59.22;;;40.28;;
51298;SDS011;37382;45.192;9.790;2023-09-30T05:17:45;54.70;;;40.72;;
51298;SDS011;37382;45.192;9.790;2023-09-30T05:20:14;52.80;;;40.53;;
51298;SDS011;37382;45.192;9.790;2023-09-30T05:22:45;55.40;;;40.83;;
51298;SDS011;37382;45.192;9.790;2023-09-30T05:25:14;56.00;;;42.25;;
51298;SDS011;37382;45.192;9.790;2023-09-30T05:27:46;50.22;;;41.30;;
51298;SDS011;37382;45.192;9.790;2023-09-30T05:30:16;56.22;;;41.75;;
51298;SDS011;37382;45.192;9.790;2023-09-30T05:32:45;56.08;;;42.28;;
51298;SDS011;37382;45.192;9.790;2023-09-30T05:35:14;60.33;;;44.78;;
51298;SDS011;37382;45.192;9.790;2023-09-30T05:37:44;66.90;;;47.28;;
51298;SDS011;37382;45.192;9.790;2023-09-30T05:40:12;64.10;;;46.47;;
51298;SDS011;37382;45.192;9.790;2023-09-30T05:42:52;65.45;;;46.35;;
51298;SDS011;37382;45.192;9.790;2023-09-30T05:45:22;57.75;;;45.47;;
51298;SDS011;37382;45.192;9.790;2023-09-30T05:47:50;63.58;;;47.38;;
51298;SDS011;37382;45.192;9.790;2023-09-30T05:50:22;66.78;;;48.50;;
51298;SDS011;37382;45.192;9.790;2023-09-30T05:52:54;69.50;;;49.42;;
51298;SDS011;37382;45.192;9.790;2023-09-30T05:55:23;65.18;;;48.40;;
51298;SDS011;37382;45.192;9.790;2023-09-30T05:57:54;66.95;;;48.08;;
51298;SDS011;37382;45.192;9.790;2023-09-30T06:00:22;57.70;;;43.38;;
51298;SDS011;37382;45.192;9.790;2023-09-30T06:02:51;64.97;;;45.10;;
51298;SDS011;37382;45.192;9.790;2023-09-30T06:05:19;60.88;;;45.42;;
51298;SDS011;37382;45.192;9.790;2023-09-30T06:07:46;62.85;;;50.08;;
51298;SDS011;37382;45.192;9.790;2023-09-30T06:10:14;65.10;;;49.80;;
51298;SDS011;37382;45.192;9.790;2023-09-30T06:15:16;66.50;;;50.25;;
51298;SDS011;37382;45.192;9.790;2023-09-30T06:17:49;75.50;;;53.97;;
51298;SDS011;37382;45.192;9.790;2023-09-30T06:20:19;81.22;;;56.80;;
51298;SDS011;37382;45.192;9.790;2023-09-30T06:22:49;70.00;;;56.20;;
51298;SDS011;37382;45.192;9.790;2023-09-30T06:25:17;89.82;;;57.85;;
51298;SDS011;37382;45.192;9.790;2023-09-30T06:27:45;93.78;;;60.13;;
51298;SDS011;37382;45.192;9.790;2023-09-30T06:30:17;94.57;;;61.05;;
51298;SDS011;37382;45.192;9.790;2023-09-30T06:32:46;83.97;;;60.10;;
51298;SDS011;37382;45.192;9.790;2023-09-30T06:35:15;80.97;;;61.20;;
51298;SDS011;37382;45.192;9.790;2023-09-30T06:37:42;92.30;;;61.38;;
51298;SDS011;37382;45.192;9.790;2023-09-30T06:40:13;96.32;;;62.75;;
51298;SDS011;37382;45.192;9.790;2023-09-30T06:42:40;101.72;;;61.08;;
51298;SDS011;37382;45.192;9.790;2023-09-30T06:45:09;79.10;;;57.33;;
51298;SDS011;37382;45.192;9.790;2023-09-30T06:47:39;85.38;;;61.25;;
51298;SDS011;37382;45.192;9.790;2023-09-30T06:50:09;78.00;;;60.83;;
51298;SDS011;37382;45.192;9.790;2023-09-30T06:52:40;83.38;;;58.88;;
51298;SDS011;37382;45.192;9.790;2023-09-30T06:55:09;84.72;;;60.13;;
51298;SDS011;37382;45.192;9.790;2023-09-30T06:57:37;88.90;;;58.22;;
51298;SDS011;37382;45.192;9.790;2023-09-30T07:00:08;83.07;;;58.83;;
51298;SDS011;37382;45.192;9.790;2023-09-30T07:02:38;83.30;;;56.33;;
51298;SDS011;37382;45.192;9.790;2023-09-30T07:05:11;86.55;;;56.85;;
51298;SDS011;37382;45.192;9.790;2023-09-30T07:07:41;78.07;;;55.72;;
51298;SDS011;37382;45.192;9.790;2023-09-30T07:10:12;85.03;;;53.08;;
51298;SDS011;37382;45.192;9.790;2023-09-30T07:12:41;69.35;;;51.72;;
51298;SDS011;37382;45.192;9.790;2023-09-30T07:15:09;76.78;;;52.40;;
51298;SDS011;37382;45.192;9.790;2023-09-30T07:17:37;71.57;;;52.38;;
51298;SDS011;37382;45.192;9.790;2023-09-30T07:20:06;68.13;;;50.75;;
51298;SDS011;37382;45.192;9.790;2023-09-30T07:22:34;72.32;;;50.92;;
51298;SDS011;37382;45.192;9.790;2023-09-30T07:25:21;78.80;;;50.13;;
51298;SDS011;37382;45.192;9.790;2023-09-30T07:27:49;78.05;;;51.30;;
51298;SDS011;37382;45.192;9.790;2023-09-30T07:30:16;72.38;;;47.65;;
51298;SDS011;37382;45.192;9.790;2023-09-30T07:32:45;66.85;;;49.08;;
51298;SDS011;37382;45.192;9.790;2023-09-30T07:35:14;77.07;;;48.13;;
51298;SDS011;37382;45.192;9.790;2023-09-30T07:37:43;70.90;;;50.45;;
51298;SDS011;37382;45.192;9.790;2023-09-30T07:40:11;78.28;;;50.85;;
51298;SDS011;37382;45.192;9.790;2023-09-30T07:42:40;84.07;;;50.05;;
51298;SDS011;37382;45.192;9.790;2023-09-30T07:45:08;73.68;;;51.03;;
51298;SDS011;37382;45.192;9.790;2023-09-30T07:47:36;70.50;;;49.47;;
51298;SDS011;37382;45.192;9.790;2023-09-30T07:50:05;78.22;;;49.63;;
51298;SDS011;37382;45.192;9.790;2023-09-30T07:52:37;69.00;;;49.70;;
51298;SDS011;37382;45.192;9.790;2023-09-30T07:55:09;88.18;;;50.83;;
51298;SDS011;37382;45.192;9.790;2023-09-30T07:57:40;71.75;;;52.42;;
51298;SDS011;37382;45.192;9.790;2023-09-30T08:00:10;67.25;;;48.75;;
51298;SDS011;37382;45.192;9.790;2023-09-30T08:02:43;79.10;;;51.17;;
51298;SDS011;37382;45.192;9.790;2023-09-30T08:05:12;74.78;;;51.05;;
51298;SDS011;37382;45.192;9.790;2023-09-30T08:07:40;69.35;;;52.47;;
51298;SDS011;37382;45.192;9.790;2023-09-30T08:10:08;68.93;;;50.03;;
51298;SDS011;37382;45.192;9.790;2023-09-30T08:12:41;66.05;;;47.95;;
51298;SDS011;37382;45.192;9.790;2023-09-30T08:15:09;68.10;;;49.45;;
51298;SDS011;37382;45.192;9.790;2023-09-30T08:17:40;69.45;;;51.58;;
51298;SDS011;37382;45.192;9.790;2023-09-30T08:20:07;71.70;;;51.30;;
51298;SDS011;37382;45.192;9.790;2023-09-30T08:22:39;72.00;;;52.45;;
51298;SDS011;37382;45.192;9.790;2023-09-30T08:25:08;70.20;;;51.97;;
51298;SDS011;37382;45.192;9.790;2023-09-30T08:27:36;66.60;;;47.67;;
51298;SDS011;37382;45.192;9.790;2023-09-30T08:30:06;81.75;;;51.30;;
51298;SDS011;37382;45.192;9.790;2023-09-30T08:32:34;90.53;;;50.30;;
51298;SDS011;37382;45.192;9.790;2023-09-30T08:35:03;79.82;;;50.45;;
51298;SDS011;37382;45.192;9.790;2023-09-30T08:37:31;73.93;;;47.22;;
51298;SDS011;37382;45.192;9.790;2023-09-30T08:39:58;70.35;;;49.42;;
51298;SDS011;37382;45.192;9.790;2023-09-30T08:42:26;75.10;;;48.67;;
51298;SDS011;37382;45.192;9.790;2023-09-30T08:45:00;75.25;;;48.72;;
51298;SDS011;37382;45.192;9.790;2023-09-30T08:47:28;69.28;;;46.35;;
51298;SDS011;37382;45.192;9.790;2023-09-30T08:49:59;80.30;;;48.03;;
51298;SDS011;37382;45.192;9.790;2023-09-30T08:52:34;68.35;;;46.92;;
51298;SDS011;37382;45.192;9.790;2023-09-30T08:55:10;67.63;;;47.92;;
51298;SDS011;37382;45.192;9.790;2023-09-30T08:57:40;68.90;;;46.30;;
51298;SDS011;37382;45.192;9.790;2023-09-30T09:00:09;80.30;;;47.22;;
51298;SDS011;37382;45.192;9.790;2023-09-30T09:02:42;59.70;;;44.92;;
51298;SDS011;37382;45.192;9.790;2023-09-30T09:07:38;73.72;;;46.70;;
51298;SDS011;37382;45.192;9.790;2023-09-30T09:10:07;70.35;;;46.25;;
51298;SDS011;37382;45.192;9.790;2023-09-30T09:12:37;68.25;;;46.35;;
51298;SDS011;37382;45.192;9.790;2023-09-30T09:15:08;74.65;;;43.80;;
51298;SDS011;37382;45.192;9.790;2023-09-30T09:17:48;62.90;;;41.35;;
51298;SDS011;37382;45.192;9.790;2023-09-30T09:20:18;61.58;;;42.72;;
51298;SDS011;37382;45.192;9.790;2023-09-30T09:22:51;68.53;;;43.20;;
51298;SDS011;37382;45.192;9.790;2023-09-30T09:25:22;59.63;;;43.83;;
51298;SDS011;37382;45.192;9.790;2023-09-30T09:27:51;58.72;;;43.30;;
51298;SDS011;37382;45.192;9.790;2023-09-30T09:33:03;63.90;;;42.35;;
51298;SDS011;37382;45.192;9.790;2023-09-30T09:35:33;65.20;;;41.92;;
51298;SDS011;37382;45.192;9.790;2023-09-30T09:40:32;63.65;;;39.28;;
51298;SDS011;37382;45.192;9.790;2023-09-30T09:43:05;67.32;;;40.88;;
51298;SDS011;37382;45.192;9.790;2023-09-30T09:45:34;60.30;;;39.53;;
51298;SDS011;37382;45.192;9.790;2023-09-30T09:50:34;63.05;;;39.45;;
51298;SDS011;37382;45.192;9.790;2023-09-30T09:53:03;71.25;;;40.45;;
51298;SDS011;37382;45.192;9.790;2023-09-30T09:55:32;58.78;;;38.58;;
51298;SDS011;37382;45.192;9.790;2023-09-30T09:58:00;69.22;;;40.15;;
51298;SDS011;37382;45.192;9.790;2023-09-30T10:00:30;51.85;;;36.95;;
51298;SDS011;37382;45.192;9.790;2023-09-30T10:02:58;47.92;;;36.47;;
51298;SDS011;37382;45.192;9.790;2023-09-30T10:05:26;57.20;;;35.20;;
51298;SDS011;37382;45.192;9.790;2023-09-30T10:08:00;57.38;;;36.10;;
51298;SDS011;37382;45.192;9.790;2023-09-30T10:10:36;50.38;;;35.88;;
51298;SDS011;37382;45.192;9.790;2023-09-30T10:13:04;49.97;;;34.65;;
51298;SDS011;37382;45.192;9.790;2023-09-30T10:15:37;51.97;;;35.75;;
51298;SDS011;37382;45.192;9.790;2023-09-30T10:18:11;59.45;;;37.00;;
51298;SDS011;37382;45.192;9.790;2023-09-30T10:20:43;43.35;;;31.20;;
51298;SDS011;37382;45.192;9.790;2023-09-30T10:25:44;51.83;;;32.38;;
51298;SDS011;37382;45.192;9.790;2023-09-30T10:28:34;52.92;;;31.25;;
51298;SDS011;37382;45.192;9.790;2023-09-30T10:31:08;51.42;;;31.42;;
51298;SDS011;37382;45.192;9.790;2023-09-30T10:36:30;52.92;;;32.15;;
51298;SDS011;37382;45.192;9.790;2023-09-30T10:39:02;53.30;;;31.85;;
51298;SDS011;37382;45.192;9.790;2023-09-30T10:46:52;50.22;;;30.33;;
51298;SDS011;37382;45.192;9.790;2023-09-30T10:51:51;50.95;;;32.30;;
51298;SDS011;37382;45.192;9.790;2023-09-30T10:56:51;47.13;;;33.20;;
51298;SDS011;37382;45.192;9.790;2023-09-30T10:59:23;41.53;;;24.92;;
51298;SDS011;37382;45.192;9.790;2023-09-30T11:01:52;38.40;;;23.52;;
51298;SDS011;37382;45.192;9.790;2023-09-30T11:04:23;31.38;;;23.73;;
51298;SDS011;37382;45.192;9.790;2023-09-30T11:06:51;37.30;;;24.48;;
51298;SDS011;37382;45.192;9.790;2023-09-30T11:09:19;35.00;;;22.90;;
51298;SDS011;37382;45.192;9.790;2023-09-30T11:11:49;42.75;;;22.30;;
51298;SDS011;37382;45.192;9.790;2023-09-30T11:16:56;35.72;;;23.42;;
51298;SDS011;37382;45.192;9.790;2023-09-30T11:19:25;32.85;;;23.63;;
51298;SDS011;37382;45.192;9.790;2023-09-30T11:21:54;40.05;;;24.15;;
51298;SDS011;37382;45.192;9.790;2023-09-30T11:24:22;41.40;;;23.40;;
51298;SDS011;37382;45.192;9.790;2023-09-30T11:26:53;46.70;;;24.20;;
51298;SDS011;37382;45.192;9.790;2023-09-30T11:29:22;42.65;;;24.90;;
51298;SDS011;37382;45.192;9.790;2023-09-30T11:31:52;32.13;;;22.85;;
51298;SDS011;37382;45.192;9.790;2023-09-30T11:34:19;44.65;;;20.67;;
51298;SDS011;37382;45.192;9.790;2023-09-30T11:37:00;34.42;;;18.85;;
51298;SDS011;37382;45.192;9.790;2023-09-30T11:39:28;34.38;;;20.45;;
51298;SDS011;37382;45.192;9.790;2023-09-30T11:41:57;32.22;;;20.02;;
51298;SDS011;37382;45.192;9.790;2023-09-30T11:44:25;29.15;;;16.13;;
51298;SDS011;37382;45.192;9.790;2023-09-30T11:49:33;24.45;;;15.80;;
51298;SDS011;37382;45.192;9.790;2023-09-30T11:52:09;26.20;;;16.48;;
51298;SDS011;37382;45.192;9.790;2023-09-30T11:54:39;33.08;;;15.88;;
51298;SDS011;37382;45.192;9.790;2023-09-30T11:57:16;33.97;;;17.67;;
51298;SDS011;37382;45.192;9.790;2023-09-30T11:59:45;36.15;;;20.85;;
51298;SDS011;37382;45.192;9.790;2023-09-30T12:02:15;34.45;;;20.33;;
51298;SDS011;37382;45.192;9.790;2023-09-30T12:04:46;33.17;;;20.27;;
51298;SDS011;37382;45.192;9.790;2023-09-30T12:07:15;32.38;;;19.33;;
51298;SDS011;37382;45.192;9.790;2023-09-30T12:09:42;28.73;;;17.73;;
51298;SDS011;37382;45.192;9.790;2023-09-30T12:12:10;30.58;;;19.27;;
51298;SDS011;37382;45.192;9.790;2023-09-30T12:14:42;48.17;;;21.48;;
51298;SDS011;37382;45.192;9.790;2023-09-30T12:17:10;36.53;;;19.60;;
51298;SDS011;37382;45.192;9.790;2023-09-30T12:19:40;26.33;;;17.92;;
51298;SDS011;37382;45.192;9.790;2023-09-30T12:22:09;24.88;;;14.55;;
51298;SDS011;37382;45.192;9.790;2023-09-30T12:24:38;26.90;;;15.57;;
51298;SDS011;37382;45.192;9.790;2023-09-30T12:27:07;28.63;;;16.15;;
51298;SDS011;37382;45.192;9.790;2023-09-30T12:29:34;33.92;;;19.52;;
51298;SDS011;37382;45.192;9.790;2023-09-30T12:32:02;36.90;;;19.70;;
51298;SDS011;37382;45.192;9.790;2023-09-30T12:34:30;30.67;;;19.75;;
51298;SDS011;37382;45.192;9.790;2023-09-30T12:36:59;27.98;;;16.85;;
51298;SDS011;37382;45.192;9.790;2023-09-30T12:39:27;29.15;;;17.80;;
51298;SDS011;37382;45.192;9.790;2023-09-30T12:41:57;27.23;;;18.45;;
51298;SDS011;37382;45.192;9.790;2023-09-30T12:44:25;29.88;;;20.15;;
51298;SDS011;37382;45.192;9.790;2023-09-30T12:46:53;31.42;;;20.33;;
51298;SDS011;37382;45.192;9.790;2023-09-30T12:49:20;38.13;;;21.63;;
51298;SDS011;37382;45.192;9.790;2023-09-30T12:51:48;32.95;;;19.13;;
51298;SDS011;37382;45.192;9.790;2023-09-30T12:54:15;45.08;;;20.33;;
51298;SDS011;37382;45.192;9.790;2023-09-30T12:56:46;31.92;;;20.13;;
51298;SDS011;37382;45.192;9.790;2023-09-30T12:59:15;22.25;;;15.60;;
51298;SDS011;37382;45.192;9.790;2023-09-30T13:01:43;33.50;;;17.40;;
51298;SDS011;37382;45.192;9.790;2023-09-30T13:04:11;20.48;;;14.13;;
51298;SDS011;37382;45.192;9.790;2023-09-30T13:06:39;29.10;;;16.02;;
51298;SDS011;37382;45.192;9.790;2023-09-30T13:09:07;25.70;;;14.40;;
51298;SDS011;37382;45.192;9.790;2023-09-30T13:11:36;32.65;;;15.90;;
51298;SDS011;37382;45.192;9.790;2023-09-30T13:14:04;33.33;;;14.00;;
51298;SDS011;37382;45.192;9.790;2023-09-30T13:16:32;23.75;;;17.52;;
51298;SDS011;37382;45.192;9.790;2023-09-30T13:18:59;36.03;;;15.73;;
51298;SDS011;37382;45.192;9.790;2023-09-30T13:21:29;26.35;;;16.75;;
51298;SDS011;37382;45.192;9.790;2023-09-30T13:23:57;34.92;;;18.35;;
51298;SDS011;37382;45.192;9.790;2023-09-30T13:26:24;21.17;;;14.00;;
51298;SDS011;37382;45.192;9.790;2023-09-30T13:28:52;15.63;;;12.05;;
51298;SDS011;37382;45.192;9.790;2023-09-30T13:31:20;29.17;;;18.58;;
51298;SDS011;37382;45.192;9.790;2023-09-30T13:33:48;21.65;;;14.10;;
51298;SDS011;37382;45.192;9.790;2023-09-30T13:36:16;34.88;;;17.42;;
51298;SDS011;37382;45.192;9.790;2023-09-30T13:38:43;30.83;;;15.60;;
51298;SDS011;37382;45.192;9.790;2023-09-30T13:41:11;23.15;;;14.15;;
51298;SDS011;37382;45.192;9.790;2023-09-30T13:43:38;23.40;;;12.75;;
51298;SDS011;37382;45.192;9.790;2023-09-30T13:46:06;31.38;;;18.80;;
51298;SDS011;37382;45.192;9.790;2023-09-30T13:48:34;29.83;;;17.48;;
51298;SDS011;37382;45.192;9.790;2023-09-30T13:51:05;35.38;;;16.48;;
51298;SDS011;37382;45.192;9.790;2023-09-30T13:53:34;22.98;;;14.50;;
51298;SDS011;37382;45.192;9.790;2023-09-30T13:56:02;20.90;;;14.45;;
51298;SDS011;37382;45.192;9.790;2023-09-30T14:00:59;30.83;;;14.68;;
51298;SDS011;37382;45.192;9.790;2023-09-30T14:03:27;29.55;;;13.75;;
51298;SDS011;37382;45.192;9.790;2023-09-30T14:05:56;23.60;;;14.32;;
51298;SDS011;37382;45.192;9.790;2023-09-30T14:08:24;26.85;;;14.60;;
51298;SDS011;37382;45.192;9.790;2023-09-30T14:10:52;38.05;;;13.18;;
51298;SDS011;37382;45.192;9.790;2023-09-30T14:13:19;22.08;;;13.45;;
51298;SDS011;37382;45.192;9.790;2023-09-30T14:15:47;18.98;;;9.40;;
51298;SDS011;37382;45.192;9.790;2023-09-30T14:18:14;21.92;;;11.80;;
51298;SDS011;37382;45.192;9.790;2023-09-30T14:20:42;22.83;;;10.13;;
51298;SDS011;37382;45.192;9.790;2023-09-30T14:23:10;24.00;;;10.90;;
51298;SDS011;37382;45.192;9.790;2023-09-30T14:25:37;18.55;;;10.20;;
51298;SDS011;37382;45.192;9.790;2023-09-30T14:28:05;22.65;;;10.55;;
51298;SDS011;37382;45.192;9.790;2023-09-30T14:30:33;18.30;;;9.65;;
51298;SDS011;37382;45.192;9.790;2023-09-30T14:33:01;19.42;;;10.77;;
51298;SDS011;37382;45.192;9.790;2023-09-30T14:35:32;21.02;;;9.80;;
51298;SDS011;37382;45.192;9.790;2023-09-30T14:38:04;21.55;;;9.00;;
51298;SDS011;37382;45.192;9.790;2023-09-30T14:40:35;17.15;;;10.13;;
51298;SDS011;37382;45.192;9.790;2023-09-30T14:43:04;28.05;;;9.38;;
51298;SDS011;37382;45.192;9.790;2023-09-30T14:45:39;18.52;;;10.00;;
51298;SDS011;37382;45.192;9.790;2023-09-30T14:48:07;27.67;;;11.10;;
51298;SDS011;37382;45.192;9.790;2023-09-30T14:50:36;25.27;;;11.70;;
51298;SDS011;37382;45.192;9.790;2023-09-30T14:53:03;24.85;;;10.95;;
51298;SDS011;37382;45.192;9.790;2023-09-30T14:55:32;22.27;;;11.32;;
51298;SDS011;37382;45.192;9.790;2023-09-30T14:57:59;20.48;;;10.13;;
51298;SDS011;37382;45.192;9.790;2023-09-30T15:00:27;26.52;;;9.50;;
51298;SDS011;37382;45.192;9.790;2023-09-30T15:02:55;17.52;;;10.10;;
51298;SDS011;37382;45.192;9.790;2023-09-30T15:05:22;18.08;;;8.98;;
51298;SDS011;37382;45.192;9.790;2023-09-30T15:07:51;17.90;;;10.27;;